Warm Springs, Virginia
Current Conditions -  °F | °C
As of 12:55 PM on Monday 24 Nov 2014 (Local Time) from KHSP Reporting Station
Clear Clear  
Wind Chill: 15°   Ceiling: Unl
Heat Index: 15°   Visibility: 10mi
Dew Point:   Wind: 18mph
Humidity: 58%   Direction: 220°SW
Pressure: 29.67"   Gusts: 26mph
Location:  38.05°N, 79.79°W
Report Text: KHSP 241755Z AUTO 22016G23KT 10SM CLR 15/07 A2967 RMK AO2 T01510068 10151 20090
Loading
Personal Weather Stations






























Interactive Weather Map New forecast layout! Learn more

10-Day Weather Forecast

Advertisements
Track Severe Weather on mobile